Current Weather



TAF Data Links

METAR Data Links

Latest METAR/TAF Data


Available data for KAUS from the past 2 hours
AUSTIN, TX
Metar
KAUS 220553Z 19007KT 10SM FEW200 28/23 A2996 RMK AO2 SLP132 T02830228 10372 20283 403830222 50012

05:53 UTC

Wind: 190° 7kt

Visibility: 10 SM

Sky: FEW 20000 ft

Temp: 28 deg C / 82.4 deg F

Dewpoint: 23 deg C / 73.4 deg F

Pressure: 29.96 inHg

TAF
KAUS 220539Z 2206/2312 17009KT P6SM FEW200 FM221100 18007KT P6SM SCT015 SCT250 FM221500 18008KT P6SM FEW060 FM230000 15009KT P6SM SCT250


Available data for KEDC from the past 2 hours
AUSTIN EXEC, TX
Metar
KEDC 220615Z AUTO 00000KT 27/23 A2998 RMK AO2


Available data for KRYW from the past 2 hours
LAGO VISTA, TX
Metar
KRYW 220615Z AUTO 19007G15KT 160V220 10SM CLR 28/22 A3000 RMK AO2 T02810215

06:15 UTC

Wind: 190° 7kt

Visibility: 10 SM

Sky:

Temp: 28 deg C / 82.4 deg F

Dewpoint: 22 deg C / 71.6 deg F

Pressure: 30 inHg